Pilote(s) en ligne...
 F-GMAN (Gilles)  
 F-JMJM (Jean-Manuel)  Vol    LEMD/LIRF

Compagnie Fsx-France ! Un nouveau look pour votre VA, par : Julien & Co

 METAR ET TAF INFORMATION
METAR FOR EVRA :
EVRA 041820Z 07003KT CAVOK 02/M05 Q1022 NOSIG

 AÉROPORT DE AÉROPORT

 INFORMATIONS DE PISTE
Piste 18 Longueur de la piste 3200 m = 10499 ft Largeur de la piste 45 m = 148 ft
Élévation de la piste 31 ft Seuil de la piste déplacés 0 ft Runway heading 185
Piste 36 Longueur de la piste 3200 m = 10499 ft Largeur de la piste 45 m = 148 ft
Élévation de la piste 34 ft Seuil de la piste déplacés 0 ft Runway heading 5
 AÉROPORT FRÉQUENCES
Type APP Nom APP Féquence 129.925 MHZ
Type ATIS Nom ATIS Féquence 121.2 MHZ
Type GND Nom Riga Groun Féquence 118.8 MHZ
Type MISC Nom Riga Apron Féquence 131.6 MHZ
Type TWR Nom TWR Féquence 118.1 MHZ

 AIDES A LA NAVIGATION
Type VOR-DME Nom Riga Féquence 112050 KHZ
Type VOR-DME Nom Riga Féquence 113700 KHZ